createdAt,value
2023-05-09T00:02:01.215Z,96447.59
2023-05-09T00:04:38.216Z,96449.44
2023-05-09T00:07:11.174Z,96442.50
2023-05-09T00:09:43.496Z,96439.03
2023-05-09T00:12:29.648Z,96434.50
2023-05-09T00:14:58.950Z,96430.22
2023-05-09T00:17:30.717Z,96425.94
2023-05-09T00:19:58.338Z,96434.97
2023-05-09T00:22:29.074Z,96430.72
2023-05-09T00:24:56.847Z,96434.41
2023-05-09T00:27:24.510Z,96423.75
2023-05-09T00:29:52.453Z,96430.94
2023-05-09T00:32:21.456Z,96425.84
2023-05-09T00:34:49.147Z,96425.03
2023-05-09T00:37:21.015Z,96417.28
2023-05-09T00:39:49.017Z,96421.81
2023-05-09T00:42:17.341Z,96417.75
2023-05-09T00:44:45.001Z,96409.75
2023-05-09T00:47:33.062Z,96410.59
2023-05-09T00:50:00.711Z,96398.28
2023-05-09T00:52:46.904Z,96392.16
2023-05-09T00:55:33.271Z,96394.00
2023-05-09T00:58:00.935Z,96389.75
2023-05-09T01:00:32.550Z,96395.31
2023-05-09T01:03:20.591Z,96386.50
2023-05-09T01:05:57.001Z,96384.88
2023-05-09T01:08:38.614Z,96386.75
2023-05-09T01:11:32.397Z,96378.16
2023-05-09T01:14:09.431Z,96374.47
2023-05-09T01:17:02.940Z,96369.38
2023-05-09T01:20:05.950Z,96366.94
2023-05-09T01:22:37.277Z,96363.25
2023-05-09T01:25:24.859Z,96357.09
2023-05-09T01:28:01.793Z,96358.41
2023-05-09T01:30:32.413Z,96352.22
2023-05-09T01:33:11.249Z,96361.06
2023-05-09T01:36:03.345Z,96365.31
2023-05-09T01:38:33.131Z,96362.09
2023-05-09T01:41:05.433Z,96362.09
2023-05-09T01:43:39.169Z,96366.63
2023-05-09T01:46:09.507Z,96358.06
2023-05-09T01:48:58.359Z,96361.22
2023-05-09T01:51:27.899Z,96368.41
2023-05-09T01:53:59.079Z,96362.28
2023-05-09T01:56:38.660Z,96363.06
2023-05-09T01:59:09.148Z,96351.63
2023-05-09T02:01:57.595Z,96358.78
2023-05-09T02:04:44.843Z,96349.19
2023-05-09T02:07:13.877Z,96353.94
2023-05-09T02:09:44.746Z,96349.44
2023-05-09T02:12:12.386Z,96352.34
2023-05-09T02:14:58.893Z,96350.47
2023-05-09T02:17:46.620Z,96359.28
2023-05-09T02:20:14.638Z,96353.94
2023-05-09T02:22:47.832Z,96353.94
2023-05-09T02:25:18.677Z,96353.13
2023-05-09T02:27:48.085Z,96337.94
2023-05-09T02:30:40.179Z,96337.94
2023-05-09T02:33:11.703Z,96337.94
2023-05-09T02:35:45.022Z,96336.34
2023-05-09T02:38:16.745Z,96338.19
2023-05-09T02:40:50.335Z,96331.81
2023-05-09T02:43:23.113Z,96331.00
2023-05-09T02:45:50.877Z,96329.16
2023-05-09T02:48:20.140Z,96338.19
2023-05-09T02:51:06.604Z,96333.91
2023-05-09T02:53:52.631Z,96332.28
2023-05-09T02:56:20.980Z,96343.19
2023-05-09T02:58:51.345Z,96337.88
2023-05-09T03:01:19.323Z,96338.94
2023-05-09T03:03:49.455Z,96336.84
2023-05-09T03:06:17.327Z,96337.63
2023-05-09T03:08:45.059Z,96330.13
2023-05-09T03:11:12.733Z,96332.78
2023-05-09T03:13:43.399Z,96328.53
2023-05-09T03:16:21.316Z,96319.69
2023-05-09T03:19:01.668Z,96329.56
2023-05-09T03:21:31.901Z,96327.94
2023-05-09T03:24:04.956Z,96336.75
2023-05-09T03:26:53.412Z,96319.13
2023-05-09T03:29:21.058Z,96323.69
2023-05-09T03:32:07.309Z,96312.19
2023-05-09T03:34:36.377Z,96315.91
2023-05-09T03:37:13.027Z,96323.09
2023-05-09T03:39:45.681Z,96327.63
2023-05-09T03:42:32.092Z,96316.16
2023-05-09T03:45:01.475Z,96319.06
2023-05-09T03:47:47.822Z,96321.75
2023-05-09T03:50:17.022Z,96320.13
2023-05-09T03:52:44.697Z,96325.44
2023-05-09T03:55:30.928Z,96328.34
2023-05-09T03:57:58.885Z,96324.06
2023-05-09T04:00:45.399Z,96319.56
2023-05-09T04:03:13.942Z,96319.31
2023-05-09T04:05:53.013Z,96312.34
2023-05-09T04:08:20.730Z,96323.56
2023-05-09T04:11:07.287Z,96323.81
2023-05-09T04:13:35.182Z,96323.81
2023-05-09T04:16:11.877Z,96315.03
2023-05-09T04:18:58.160Z,96323.81
2023-05-09T04:21:27.383Z,96319.88
2023-05-09T04:24:05.786Z,96322.53
2023-05-09T04:26:52.186Z,96330.28
2023-05-09T04:29:19.855Z,96317.75
2023-05-09T04:31:49.146Z,96322.84
2023-05-09T04:34:35.764Z,96319.38
2023-05-09T04:37:05.121Z,96320.19
2023-05-09T04:39:33.576Z,96313.25
2023-05-09T04:42:01.276Z,96310.34
2023-05-09T04:44:29.114Z,96311.16
2023-05-09T04:47:05.968Z,96315.44
2023-05-09T04:49:52.191Z,96318.91
2023-05-09T04:52:31.867Z,96310.66
2023-05-09T04:55:18.275Z,96321.88
2023-05-09T04:57:46.240Z,96319.75
2023-05-09T05:00:15.955Z,96308.06
2023-05-09T05:03:02.084Z,96308.63
2023-05-09T05:05:35.999Z,96306.78
2023-05-09T05:08:08.165Z,96313.47
2023-05-09T05:10:54.606Z,96308.47
2023-05-09T05:13:22.476Z,96307.63
2023-05-09T05:15:55.081Z,96303.13
2023-05-09T05:18:32.534Z,96308.47
2023-05-09T05:21:02.369Z,96304.25
2023-05-09T05:23:32.218Z,96302.72
2023-05-09T05:26:00.637Z,96315.56
2023-05-09T05:28:46.715Z,96305.13
2023-05-09T05:31:14.407Z,96314.50
2023-05-09T05:33:51.027Z,96316.66
2023-05-09T05:36:23.822Z,96308.66
2023-05-09T05:38:57.420Z,96311.91
2023-05-09T05:41:35.065Z,96320.16
2023-05-09T05:44:07.593Z,96313.19
2023-05-09T05:46:54.016Z,96314.75
2023-05-09T05:49:21.696Z,96309.41
2023-05-09T05:51:58.609Z,96302.47
2023-05-09T05:54:32.608Z,96303.84
2023-05-09T05:57:04.209Z,96299.63
2023-05-09T05:59:51.496Z,96299.66
2023-05-09T06:02:19.696Z,96295.72
2023-05-09T06:04:47.547Z,96300.56
2023-05-09T06:07:33.970Z,96294.19
2023-05-09T06:10:03.992Z,96284.31
2023-05-09T06:12:32.524Z,96288.91
2023-05-09T06:15:18.981Z,96288.72
2023-05-09T06:17:46.910Z,96286.09
2023-05-09T06:20:34.570Z,96284.75
2023-05-09T06:23:05.266Z,96283.13
2023-05-09T06:25:37.841Z,96281.25
2023-05-09T06:28:05.644Z,96277.00
2023-05-09T06:30:51.937Z,96273.09
2023-05-09T06:33:24.632Z,96272.91
2023-05-09T06:36:11.670Z,96269.25
2023-05-09T06:38:40.198Z,96274.84
2023-05-09T06:41:12.227Z,96273.22
2023-05-09T06:43:40.287Z,96268.19
2023-05-09T06:46:09.819Z,96260.59
2023-05-09T06:48:55.976Z,96256.03
2023-05-09T06:51:23.740Z,96252.91
2023-05-09T06:53:58.223Z,96246.19
2023-05-09T06:56:46.387Z,96247.19
2023-05-09T06:59:16.255Z,96250.94
2023-05-09T07:01:46.028Z,96248.03
2023-05-09T07:04:14.598Z,96247.19
2023-05-09T07:06:52.201Z,96246.66
2023-05-09T07:09:38.437Z,96236.78
2023-05-09T07:12:07.952Z,96238.09
2023-05-09T07:14:35.728Z,96233.25
2023-05-09T07:17:24.045Z,96228.44
2023-05-09T07:20:11.057Z,96226.50
2023-05-09T07:22:38.755Z,96227.56
2023-05-09T07:25:25.026Z,96219.84
2023-05-09T07:27:53.978Z,96219.66
2023-05-09T07:30:24.244Z,96217.81
2023-05-09T07:32:54.812Z,96218.44
2023-05-09T07:35:41.245Z,96209.38
2023-05-09T07:38:27.690Z,96208.34
2023-05-09T07:40:55.385Z,96200.13
2023-05-09T07:43:42.873Z,96201.53
2023-05-09T07:46:10.533Z,96201.84
2023-05-09T07:48:56.864Z,96190.91
2023-05-09T07:51:24.502Z,96190.25
2023-05-09T07:53:55.106Z,96185.69
2023-05-09T07:56:23.855Z,96188.09
2023-05-09T07:58:55.711Z,96179.31
2023-05-09T08:01:23.729Z,96176.66
2023-05-09T08:03:52.331Z,96173.22
2023-05-09T08:06:24.637Z,96163.88
2023-05-09T08:08:52.281Z,96159.88
2023-05-09T08:11:24.701Z,96160.72
2023-05-09T08:14:13.166Z,96155.63
2023-05-09T08:16:43.288Z,96156.44
2023-05-09T08:19:15.872Z,96147.84
2023-05-09T08:22:01.899Z,96141.41
2023-05-09T08:24:32.876Z,96136.91
2023-05-09T08:27:19.318Z,96138.78
2023-05-09T08:30:08.358Z,96131.59
2023-05-09T08:32:36.184Z,96126.81
2023-05-09T08:35:22.237Z,96128.38
2023-05-09T08:37:49.893Z,96123.56
2023-05-09T08:40:20.865Z,96122.25
2023-05-09T08:42:49.754Z,96117.16
2023-05-09T08:45:28.374Z,96116.38
2023-05-09T08:48:16.597Z,96115.06
2023-05-09T08:50:45.138Z,96111.59
2023-05-09T08:53:13.526Z,96104.09
2023-05-09T08:55:45.556Z,96104.38
2023-05-09T08:58:23.364Z,96100.91
2023-05-09T09:00:55.518Z,96084.03
2023-05-09T09:03:26.241Z,96092.88
2023-05-09T09:06:13.274Z,96093.94
2023-05-09T09:08:41.633Z,96082.69
2023-05-09T09:11:14.216Z,96081.09
2023-05-09T09:13:53.736Z,96076.00
2023-05-09T09:16:35.209Z,96073.38
2023-05-09T09:19:10.576Z,96073.34
2023-05-09T09:22:00.751Z,96060.78
2023-05-09T09:24:28.320Z,96060.00
2023-05-09T09:27:14.822Z,96055.16
2023-05-09T09:29:42.479Z,96041.00
2023-05-09T09:32:18.475Z,96047.44
2023-05-09T09:35:06.947Z,96040.22
2023-05-09T09:37:41.689Z,96045.28
2023-05-09T09:40:18.707Z,96049.06
2023-05-09T09:42:48.358Z,96044.75
2023-05-09T09:45:20.900Z,96041.28
2023-05-09T09:47:59.538Z,96030.31
2023-05-09T09:50:31.330Z,96021.47
2023-05-09T09:53:09.621Z,96026.81
2023-05-09T09:55:55.956Z,96021.22
2023-05-09T09:58:25.000Z,96016.72
2023-05-09T10:01:13.827Z,96017.50
2023-05-09T10:03:44.920Z,96012.44
2023-05-09T10:06:31.808Z,96006.53
2023-05-09T10:08:59.462Z,96004.66
2023-05-09T10:11:31.801Z,96001.97
2023-05-09T10:14:00.394Z,95994.75
2023-05-09T10:16:49.130Z,95989.13
2023-05-09T10:19:21.900Z,95987.25
2023-05-09T10:21:54.526Z,95977.59
2023-05-09T10:24:29.433Z,95974.94
2023-05-09T10:27:05.130Z,95966.91
2023-05-09T10:29:36.798Z,95978.13
2023-05-09T10:32:28.707Z,95972.25
2023-05-09T10:35:03.475Z,95960.19
2023-05-09T10:37:50.958Z,95955.09
2023-05-09T10:40:20.615Z,95950.53
2023-05-09T10:43:08.258Z,95950.78
2023-05-09T10:45:36.707Z,95947.28
2023-05-09T10:48:09.050Z,95942.50
2023-05-09T10:50:57.621Z,95941.94
2023-05-09T10:53:26.222Z,95925.31
2023-05-09T10:55:58.905Z,95917.53
2023-05-09T10:58:28.571Z,95917.00
2023-05-09T11:00:58.897Z,95918.03
2023-05-09T11:03:29.798Z,95912.13
2023-05-09T11:06:50.888Z,95901.97
2023-05-09T11:09:39.209Z,95900.59
2023-05-09T11:12:12.436Z,95892.28
2023-05-09T11:15:06.393Z,95885.84
2023-05-09T11:18:06.476Z,95882.63
2023-05-09T11:20:53.573Z,95873.53
2023-05-09T11:23:28.165Z,95868.16
2023-05-09T11:26:06.591Z,95869.22
2023-05-09T11:28:37.696Z,95866.53
2023-05-09T11:31:12.334Z,95859.03
2023-05-09T11:33:56.509Z,95861.41
2023-05-09T11:36:33.883Z,95856.59
2023-05-09T11:39:06.549Z,95847.19
2023-05-09T11:41:53.102Z,95835.13
2023-05-09T11:44:22.171Z,95830.00
2023-05-09T11:46:51.669Z,95823.28
2023-05-09T11:49:29.837Z,95821.13
2023-05-09T11:52:07.220Z,95816.59
2023-05-09T11:54:54.781Z,95806.66
2023-05-09T11:57:22.497Z,95810.13
2023-05-09T11:59:53.882Z,95810.66
2023-05-09T12:02:41.011Z,95805.31
2023-05-09T12:05:11.346Z,95806.09
2023-05-09T12:07:41.337Z,95796.16
2023-05-09T12:10:12.705Z,95796.72
2023-05-09T12:12:44.611Z,95791.03
2023-05-09T12:15:22.388Z,95788.91
2023-05-09T12:18:09.273Z,95789.41
2023-05-09T12:20:44.396Z,95788.34
2023-05-09T12:23:15.865Z,95777.34
2023-05-09T12:25:50.044Z,95772.75
2023-05-09T12:28:37.033Z,95768.72
2023-05-09T12:31:23.781Z,95769.53
2023-05-09T12:34:10.680Z,95766.28
2023-05-09T12:36:38.518Z,95763.03
2023-05-09T12:39:24.824Z,95759.28
2023-05-09T12:42:01.693Z,95757.41
2023-05-09T12:44:51.659Z,95751.47
2023-05-09T12:47:19.331Z,95756.56
2023-05-09T12:49:50.952Z,95747.13
2023-05-09T12:52:50.090Z,95748.72
2023-05-09T12:55:22.095Z,95743.88
2023-05-09T12:58:01.859Z,95741.47
2023-05-09T13:00:43.286Z,95738.50
2023-05-09T13:03:37.571Z,95741.19
2023-05-09T13:06:13.901Z,95732.34
2023-05-09T13:09:01.677Z,95737.22
2023-05-09T13:11:48.656Z,95723.59
2023-05-09T13:14:36.247Z,95722.25
2023-05-09T13:17:22.846Z,95718.25
2023-05-09T13:19:53.665Z,95715.28
2023-05-09T13:22:26.699Z,95713.41
2023-05-09T13:25:13.715Z,95706.66
2023-05-09T13:28:00.019Z,95703.72
2023-05-09T13:30:29.236Z,95698.06
2023-05-09T13:33:16.587Z,95705.03
2023-05-09T13:35:53.506Z,95692.13
2023-05-09T13:38:40.983Z,95688.66
2023-05-09T13:41:09.578Z,95689.44
2023-05-09T13:43:46.461Z,95683.28
2023-05-09T13:46:34.232Z,95674.44
2023-05-09T13:49:01.958Z,95672.56
2023-05-09T13:51:48.576Z,95670.16
2023-05-09T13:54:18.580Z,95666.94
2023-05-09T13:56:48.592Z,95664.88
2023-05-09T13:59:25.468Z,95661.66
2023-05-09T14:02:13.202Z,95667.59
2023-05-09T14:05:02.776Z,95661.22
2023-05-09T14:07:31.569Z,95661.78
2023-05-09T14:10:18.437Z,95650.78
2023-05-09T14:12:47.248Z,95650.28
2023-05-09T14:15:20.076Z,95649.50
2023-05-09T14:17:49.961Z,95651.09
2023-05-09T14:20:37.433Z,95644.94
2023-05-09T14:23:08.108Z,95642.03
2023-05-09T14:25:40.678Z,95646.06
2023-05-09T14:28:10.412Z,95640.47
2023-05-09T14:30:57.378Z,95636.47
2023-05-09T14:33:27.130Z,95648.84
2023-05-09T14:36:07.211Z,95652.88
2023-05-09T14:38:38.625Z,95652.38
2023-05-09T14:41:24.832Z,95657.19
2023-05-09T14:43:52.524Z,95648.94
2023-05-09T14:46:20.518Z,95650.31
2023-05-09T14:48:53.562Z,95647.63
2023-05-09T14:51:30.347Z,95648.72
2023-05-09T14:54:00.628Z,95640.94
2023-05-09T14:56:31.447Z,95651.66
2023-05-09T14:58:59.131Z,95656.25
2023-05-09T15:01:36.887Z,95656.22
2023-05-09T15:04:06.888Z,95655.44
2023-05-09T15:06:34.729Z,95649.53
2023-05-09T15:09:02.633Z,95651.66
2023-05-09T15:11:36.403Z,95659.72
2023-05-09T15:14:14.702Z,95661.03
2023-05-09T15:16:43.244Z,95658.63
2023-05-09T15:19:14.369Z,95665.66
2023-05-09T15:21:42.102Z,95667.00
2023-05-09T15:24:09.961Z,95676.91
2023-05-09T15:26:37.650Z,95674.81
2023-05-09T15:29:05.419Z,95678.56
2023-05-09T15:31:34.309Z,95679.91
2023-05-09T15:34:02.182Z,95676.44
2023-05-09T15:36:32.067Z,95683.97
2023-05-09T15:38:59.896Z,95679.38
2023-05-09T15:41:27.882Z,95686.41
2023-05-09T15:43:55.548Z,95688.25
2023-05-09T15:46:23.293Z,95686.13
2023-05-09T15:48:54.015Z,95692.31
2023-05-09T15:51:23.353Z,95684.22
2023-05-09T15:53:52.747Z,95687.97
2023-05-09T15:56:21.627Z,95695.00
2023-05-09T15:58:49.253Z,95694.19
2023-05-09T16:01:17.250Z,95684.84
2023-05-09T16:03:46.134Z,95685.91
2023-05-09T16:06:14.243Z,95683.78
2023-05-09T16:08:42.040Z,95684.56
2023-05-09T16:11:11.046Z,95678.72
2023-05-09T16:13:38.857Z,95676.84
2023-05-09T16:16:06.980Z,95679.03
2023-05-09T16:18:37.991Z,95671.53
2023-05-09T16:21:06.119Z,95671.03
2023-05-09T16:23:35.826Z,95672.09
2023-05-09T16:26:03.487Z,95664.59
2023-05-09T16:28:34.172Z,95660.06
2023-05-09T16:31:04.677Z,95667.84
2023-05-09T16:33:33.194Z,95661.44
2023-05-09T16:36:01.424Z,95663.06
2023-05-09T16:38:30.183Z,95658.53
2023-05-09T16:40:58.821Z,95657.47
2023-05-09T16:43:26.487Z,95657.47
2023-05-09T16:45:55.837Z,95658.06
2023-05-09T16:48:23.594Z,95666.09
2023-05-09T16:50:53.568Z,95661.81
2023-05-09T16:53:22.653Z,95657.78
2023-05-09T16:55:50.467Z,95657.56
2023-05-09T16:58:18.140Z,95656.50
2023-05-09T17:00:46.062Z,95651.13
2023-05-09T17:03:15.110Z,95649.28
2023-05-09T17:05:42.733Z,95653.31
2023-05-09T17:08:10.515Z,95647.94
2023-05-09T17:10:39.497Z,95651.69
2023-05-09T17:13:08.818Z,95647.69
2023-05-09T17:15:38.246Z,95648.22
2023-05-09T17:18:06.657Z,95645.31
2023-05-09T17:20:35.681Z,95650.13
2023-05-09T17:23:04.222Z,95646.13
2023-05-09T17:25:33.387Z,95642.13
2023-05-09T17:28:01.255Z,95650.69
2023-05-09T17:30:29.155Z,95648.31
2023-05-09T17:32:56.863Z,95640.81
2023-05-09T17:35:25.749Z,95647.25
2023-05-09T17:37:54.847Z,95641.09
2023-05-09T17:40:22.801Z,95643.25
2023-05-09T17:42:54.376Z,95632.84
2023-05-09T17:45:25.005Z,95635.50
2023-05-09T17:48:03.437Z,95638.97
2023-05-09T17:50:32.939Z,95632.84
2023-05-09T17:53:02.415Z,95626.66
2023-05-09T17:55:30.277Z,95635.00
2023-05-09T17:57:58.150Z,95638.44
2023-05-09T18:00:26.101Z,95643.28
2023-05-09T18:02:53.897Z,95644.34
2023-05-09T18:05:23.340Z,95640.06
2023-05-09T18:07:51.873Z,95641.44
2023-05-09T18:10:22.210Z,95635.25
2023-05-09T18:12:49.937Z,95635.81
2023-05-09T18:15:17.583Z,95639.03
2023-05-09T18:17:48.169Z,95629.66
2023-05-09T18:20:16.221Z,95615.78
2023-05-09T18:22:44.258Z,95621.13
2023-05-09T18:25:13.869Z,95626.75
2023-05-09T18:27:42.874Z,95638.50
2023-05-09T18:30:11.364Z,95629.97
2023-05-09T18:32:39.184Z,95639.84
2023-05-09T18:35:08.111Z,95638.25
2023-05-09T18:37:37.240Z,95636.66
2023-05-09T18:40:05.940Z,95640.66
2023-05-09T18:42:34.305Z,95634.00
2023-05-09T18:45:05.771Z,95636.69
2023-05-09T18:47:33.483Z,95636.94
2023-05-09T18:50:02.848Z,95634.28
2023-05-09T18:52:32.557Z,95636.94
2023-05-09T18:55:00.545Z,95639.91
2023-05-09T18:57:28.223Z,95634.03
2023-05-09T18:59:56.058Z,95636.72
2023-05-09T19:02:25.521Z,95636.97
2023-05-09T19:04:53.282Z,95641.78
2023-05-09T19:07:22.678Z,95643.94
2023-05-09T19:09:51.284Z,95653.56
2023-05-09T19:12:18.970Z,95659.97
2023-05-09T19:14:46.839Z,95648.75
2023-05-09T19:17:14.482Z,95665.06
2023-05-09T19:19:44.468Z,95663.19
2023-05-09T19:22:31.305Z,95666.66
2023-05-09T19:24:59.161Z,95674.16
2023-05-09T19:27:27.218Z,95665.59
2023-05-09T19:29:55.855Z,95672.53
2023-05-09T19:32:26.659Z,95677.88
2023-05-09T19:34:56.314Z,95687.25
2023-05-09T19:37:42.907Z,95681.91
2023-05-09T19:40:29.669Z,95686.44
2023-05-09T19:42:57.387Z,95694.19
2023-05-09T19:45:27.285Z,95687.25
2023-05-09T19:47:56.056Z,95699.00
2023-05-09T19:50:34.761Z,95686.44
2023-05-09T19:53:13.613Z,95698.19
2023-05-09T19:55:46.821Z,95692.06
2023-05-09T19:58:33.294Z,95699.00
2023-05-09T20:01:20.222Z,95703.53
2023-05-09T20:04:07.476Z,95708.88
2023-05-09T20:06:36.761Z,95707.53
2023-05-09T20:09:07.582Z,95712.91
2023-05-09T20:11:35.930Z,95713.16
2023-05-09T20:14:06.743Z,95708.09
2023-05-09T20:16:34.478Z,95705.41
2023-05-09T20:19:20.907Z,95707.28
2023-05-09T20:21:59.031Z,95717.72
2023-05-09T20:24:45.702Z,95717.97
2023-05-09T20:27:13.911Z,95705.97
2023-05-09T20:29:41.562Z,95719.88
2023-05-09T20:32:12.211Z,95717.19
2023-05-09T20:34:39.977Z,95712.91
2023-05-09T20:37:27.723Z,95715.31
2023-05-09T20:39:55.598Z,95713.72
2023-05-09T20:42:23.965Z,95709.19
2023-05-09T20:44:51.873Z,95703.03
2023-05-09T20:47:20.539Z,95709.97
2023-05-09T20:49:48.200Z,95703.56
2023-05-09T20:52:17.481Z,95699.53
2023-05-09T20:54:50.336Z,95708.38
2023-05-09T20:57:18.043Z,95708.09
2023-05-09T20:59:47.645Z,95697.44
2023-05-09T21:02:35.572Z,95701.66
2023-05-09T21:05:07.124Z,95701.13
2023-05-09T21:07:53.598Z,95700.63
2023-05-09T21:10:41.315Z,95703.56
2023-05-09T21:13:12.188Z,95710.75
2023-05-09T21:15:58.364Z,95699.81
2023-05-09T21:18:26.218Z,95707.28
2023-05-09T21:20:57.452Z,95704.09
2023-05-09T21:23:43.576Z,95704.88
2023-05-09T21:26:13.162Z,95702.75
2023-05-09T21:28:45.378Z,95700.34
2023-05-09T21:31:31.534Z,95702.22
2023-05-09T21:33:59.378Z,95697.16
2023-05-09T21:36:29.092Z,95699.28
2023-05-09T21:39:15.758Z,95697.69
2023-05-09T21:41:53.968Z,95700.34
2023-05-09T21:44:31.429Z,95699.56
2023-05-09T21:47:17.865Z,95707.03
2023-05-09T21:49:49.435Z,95715.03
2023-05-09T21:52:35.861Z,95712.38
2023-05-09T21:55:08.229Z,95716.38
2023-05-09T21:57:41.288Z,95719.31
2023-05-09T22:00:15.198Z,95713.16
2023-05-09T22:03:01.906Z,95717.97
2023-05-09T22:05:29.625Z,95708.34
2023-05-09T22:08:16.064Z,95719.31
2023-05-09T22:11:02.383Z,95716.91
2023-05-09T22:13:42.617Z,95714.50
2023-05-09T22:16:29.923Z,95719.31
2023-05-09T22:19:17.356Z,95715.31
2023-05-09T22:21:48.898Z,95717.44
2023-05-09T22:24:21.358Z,95725.97
2023-05-09T22:27:07.920Z,95716.13
2023-05-09T22:29:37.108Z,95712.63
2023-05-09T22:32:07.531Z,95725.97
2023-05-09T22:34:55.059Z,95722.78
2023-05-09T22:37:22.962Z,95723.03
2023-05-09T22:39:52.478Z,95720.09
2023-05-09T22:42:21.160Z,95716.09
2023-05-09T22:44:59.296Z,95719.03
2023-05-09T22:47:27.143Z,95725.19
2023-05-09T22:49:56.050Z,95723.84
2023-05-09T22:52:24.571Z,95726.78
2023-05-09T22:54:54.008Z,95726.25
2023-05-09T22:57:23.654Z,95722.75
2023-05-09T22:59:51.520Z,95728.91
2023-05-09T23:02:21.295Z,95733.44
2023-05-09T23:04:49.008Z,95728.34
2023-05-09T23:07:17.604Z,95732.13
2023-05-09T23:09:45.327Z,95729.97
2023-05-09T23:12:13.054Z,95735.56
2023-05-09T23:14:40.732Z,95734.22
2023-05-09T23:17:08.404Z,95734.22
2023-05-09T23:19:37.982Z,95737.97
2023-05-09T23:22:05.950Z,95741.69
2023-05-09T23:24:33.607Z,95732.06
2023-05-09T23:27:02.475Z,95740.09
2023-05-09T23:29:30.233Z,95740.34
2023-05-09T23:31:57.890Z,95740.34
2023-05-09T23:34:26.677Z,95743.84
2023-05-09T23:36:55.691Z,95742.50
2023-05-09T23:39:27.170Z,95743.28
2023-05-09T23:42:13.739Z,95742.75
2023-05-09T23:44:41.399Z,95740.34
2023-05-09T23:47:10.906Z,95743.28
2023-05-09T23:49:44.298Z,95741.66
2023-05-09T23:52:24.288Z,95725.13
2023-05-09T23:54:52.532Z,95735.00
2023-05-09T23:57:21.941Z,95736.06
